createdAt,value
2018-03-08T00:00:12.058Z,73.40
2018-03-08T00:02:40.590Z,64.53
2018-03-08T00:05:09.601Z,57.60
2018-03-08T00:07:38.888Z,46.63
2018-03-08T00:10:07.529Z,38.23
2018-03-08T00:12:36.081Z,35.10
2018-03-08T00:15:04.604Z,31.73
2018-03-08T00:17:33.257Z,29.13
2018-03-08T00:20:02.041Z,20.50
2018-03-08T00:22:31.338Z,19.30
2018-03-08T00:24:59.827Z,14.37
2018-03-08T00:27:28.377Z,12.17
2018-03-08T00:29:56.903Z,10.67
2018-03-08T00:32:26.279Z,8.57
2018-03-08T00:34:54.982Z,8.20
2018-03-08T00:37:24.441Z,8.23
2018-03-08T00:39:52.950Z,8.40
2018-03-08T00:42:21.383Z,10.47
2018-03-08T00:44:50.008Z,10.47
2018-03-08T00:47:18.480Z,9.00
2018-03-08T00:49:48.334Z,9.97
2018-03-08T00:52:16.970Z,9.93
2018-03-08T00:54:45.632Z,8.87
2018-03-08T00:57:14.267Z,8.17
2018-03-08T00:59:42.900Z,7.80
2018-03-08T01:02:11.677Z,10.20
2018-03-08T01:04:40.408Z,8.20
2018-03-08T01:07:09.718Z,8.17
2018-03-08T01:09:38.215Z,9.50
2018-03-08T01:12:07.318Z,8.70
2018-03-08T01:14:36.922Z,8.77
2018-03-08T01:17:05.375Z,10.20
2018-03-08T01:19:33.929Z,8.80
2018-03-08T01:22:02.552Z,8.97
2018-03-08T01:24:31.476Z,8.60
2018-03-08T01:27:00.715Z,9.13
2018-03-08T01:29:29.652Z,8.90
2018-03-08T01:31:58.654Z,9.03
2018-03-08T01:34:27.981Z,9.83
2018-03-08T01:36:56.753Z,10.30
2018-03-08T01:39:25.660Z,9.70
2018-03-08T01:41:54.857Z,7.27
2018-03-08T01:44:23.397Z,8.17
2018-03-08T01:46:53.346Z,8.93
2018-03-08T01:49:22.618Z,8.10
2018-03-08T01:51:51.319Z,8.80
2018-03-08T01:54:20.548Z,9.07
2018-03-08T01:56:49.616Z,9.10
2018-03-08T01:59:18.112Z,10.03
2018-03-08T02:01:46.656Z,8.67
2018-03-08T02:04:16.296Z,8.40
2018-03-08T02:06:45.436Z,9.10
2018-03-08T02:09:14.165Z,8.90
2018-03-08T02:11:42.843Z,9.23
2018-03-08T02:14:11.974Z,7.93
2018-03-08T02:16:41.583Z,8.60
2018-03-08T02:19:11.080Z,9.20
2018-03-08T02:21:39.880Z,7.87
2018-03-08T02:24:08.420Z,7.83
2018-03-08T02:26:37.140Z,9.27
2018-03-08T02:29:06.041Z,9.10
2018-03-08T02:31:35.511Z,9.20
2018-03-08T02:34:04.039Z,8.90
2018-03-08T02:36:33.018Z,10.43
2018-03-08T02:39:02.326Z,8.90
2018-03-08T02:41:31.907Z,8.43
2018-03-08T02:44:00.489Z,9.47
2018-03-08T02:46:29.318Z,7.73
2018-03-08T02:48:58.428Z,7.80
2018-03-08T02:51:27.009Z,7.80
2018-03-08T02:53:55.641Z,7.50
2018-03-08T02:56:24.730Z,8.20
2018-03-08T02:58:53.170Z,8.00
2018-03-08T03:01:22.644Z,9.33
2018-03-08T03:03:52.029Z,8.90
2018-03-08T03:06:21.651Z,8.40
2018-03-08T03:08:50.460Z,9.23
2018-03-08T03:11:19.868Z,9.07
2018-03-08T03:13:48.520Z,9.20
2018-03-08T03:16:18.621Z,10.40
2018-03-08T03:18:47.509Z,8.80
2018-03-08T03:21:16.912Z,10.50
2018-03-08T03:23:45.817Z,8.33
2018-03-08T03:26:15.227Z,8.73
2018-03-08T03:28:43.950Z,8.13
2018-03-08T03:31:12.840Z,8.27
2018-03-08T03:33:41.385Z,9.60
2018-03-08T03:36:10.314Z,7.47
2018-03-08T03:38:39.735Z,7.30
2018-03-08T03:41:09.810Z,7.77
2018-03-08T03:43:38.263Z,7.60
2018-03-08T03:46:06.689Z,7.90
2018-03-08T03:48:36.968Z,8.60
2018-03-08T03:51:05.456Z,8.90
2018-03-08T03:53:34.277Z,8.57
2018-03-08T03:56:02.926Z,8.97
2018-03-08T03:58:31.249Z,9.30
2018-03-08T04:01:00.016Z,9.97
2018-03-08T04:03:28.667Z,9.70
2018-03-08T04:05:57.841Z,9.23
2018-03-08T04:08:26.309Z,9.43
2018-03-08T04:10:54.922Z,8.43
2018-03-08T04:13:23.682Z,8.83
2018-03-08T04:15:52.853Z,9.27
2018-03-08T04:18:23.114Z,8.73
2018-03-08T04:20:52.459Z,9.63
2018-03-08T04:23:21.302Z,9.57
2018-03-08T04:25:49.714Z,9.60
2018-03-08T04:28:18.411Z,9.63
2018-03-08T04:30:47.277Z,9.20
2018-03-08T04:33:16.273Z,9.87
2018-03-08T04:35:45.046Z,9.20
2018-03-08T04:38:13.398Z,9.63
2018-03-08T04:40:42.248Z,10.90
2018-03-08T04:43:11.242Z,10.20
2018-03-08T04:45:41.044Z,10.23
2018-03-08T04:48:09.691Z,8.90
2018-03-08T04:50:38.092Z,10.87
2018-03-08T04:53:07.005Z,7.43
2018-03-08T04:55:35.815Z,7.97
2018-03-08T04:58:04.335Z,6.97
2018-03-08T05:00:34.683Z,8.80
2018-03-08T05:03:03.090Z,8.13
2018-03-08T05:05:31.646Z,9.60
2018-03-08T05:08:00.216Z,8.47
2018-03-08T05:10:28.967Z,9.50
2018-03-08T05:12:58.512Z,9.10
2018-03-08T05:15:26.979Z,10.00
2018-03-08T05:17:55.442Z,8.67
2018-03-08T05:20:24.401Z,7.63
2018-03-08T05:22:54.153Z,7.03
2018-03-08T05:25:23.706Z,7.83
2018-03-08T05:27:52.155Z,7.77
2018-03-08T05:30:21.394Z,8.10
2018-03-08T05:32:50.025Z,8.40
2018-03-08T05:35:18.743Z,8.70
2018-03-08T05:37:47.440Z,10.03
2018-03-08T05:40:15.870Z,9.27
2018-03-08T05:42:44.601Z,9.47
2018-03-08T05:45:13.251Z,9.60
2018-03-08T05:47:41.698Z,9.70
2018-03-08T05:50:11.648Z,9.90
2018-03-08T05:52:40.440Z,8.80
2018-03-08T05:55:08.848Z,9.00
2018-03-08T05:57:37.331Z,10.03
2018-03-08T06:00:05.824Z,8.90
2018-03-08T06:02:35.454Z,9.50
2018-03-08T06:05:04.129Z,10.00
2018-03-08T06:07:33.031Z,10.07
2018-03-08T06:10:01.609Z,9.30
2018-03-08T06:12:30.003Z,9.77
2018-03-08T06:14:58.754Z,8.97
2018-03-08T06:17:27.640Z,9.17
2018-03-08T06:19:57.246Z,10.57
2018-03-08T06:22:26.463Z,10.13
2018-03-08T06:24:54.971Z,9.07
2018-03-08T06:27:24.644Z,10.67
2018-03-08T06:29:53.270Z,9.60
2018-03-08T06:32:22.013Z,8.60
2018-03-08T06:34:50.503Z,7.90
2018-03-08T06:37:18.851Z,8.63
2018-03-08T06:39:47.322Z,8.37
2018-03-08T06:42:16.456Z,8.40
2018-03-08T06:44:46.420Z,8.83
2018-03-08T06:47:14.967Z,8.30
2018-03-08T06:49:43.568Z,9.00
2018-03-08T06:52:12.039Z,9.00
2018-03-08T06:54:40.798Z,10.17
2018-03-08T06:57:09.716Z,9.03
2018-03-08T06:59:38.901Z,8.97
2018-03-08T07:02:07.997Z,9.13
2018-03-08T07:04:36.781Z,9.33
2018-03-08T07:07:05.117Z,8.70
2018-03-08T07:09:33.681Z,9.00
2018-03-08T07:12:02.242Z,10.63
2018-03-08T07:14:31.521Z,8.37
2018-03-08T07:17:01.275Z,9.07
2018-03-08T07:19:29.733Z,9.90
2018-03-08T07:21:58.264Z,8.93
2018-03-08T07:24:27.077Z,9.20
2018-03-08T07:26:55.781Z,9.10
2018-03-08T07:29:24.484Z,9.70
2018-03-08T07:31:54.293Z,9.40
2018-03-08T07:34:23.413Z,7.53
2018-03-08T07:36:52.906Z,7.27
2018-03-08T07:39:22.153Z,7.20
2018-03-08T07:41:50.625Z,8.40
2018-03-08T07:44:19.069Z,8.17
2018-03-08T07:46:47.616Z,7.83
2018-03-08T07:49:17.109Z,8.53
2018-03-08T07:51:45.550Z,8.07
2018-03-08T07:54:13.979Z,9.70
2018-03-08T07:56:42.435Z,8.83
2018-03-08T07:59:11.355Z,8.40
2018-03-08T08:01:40.066Z,8.40
2018-03-08T08:04:09.404Z,9.77
2018-03-08T08:06:38.737Z,9.00
2018-03-08T08:09:07.536Z,9.23
2018-03-08T08:11:36.622Z,9.90
2018-03-08T08:14:05.307Z,9.10
2018-03-08T08:16:34.208Z,8.83
2018-03-08T08:19:03.438Z,9.20
2018-03-08T08:21:32.608Z,8.10
2018-03-08T08:24:01.079Z,9.40
2018-03-08T08:26:29.822Z,8.90
2018-03-08T08:28:58.180Z,8.87
2018-03-08T08:31:26.721Z,8.53
2018-03-08T08:33:55.748Z,8.83
2018-03-08T08:36:23.988Z,9.30
2018-03-08T08:38:52.310Z,8.73
2018-03-08T08:41:20.584Z,8.67
2018-03-08T08:43:49.431Z,8.27
2018-03-08T08:46:17.738Z,9.03
2018-03-08T08:48:46.303Z,9.00
2018-03-08T08:51:14.668Z,8.87
2018-03-08T08:53:43.053Z,8.50
2018-03-08T08:56:11.950Z,8.20
2018-03-08T08:58:40.316Z,10.00
2018-03-08T09:01:08.835Z,8.37
2018-03-08T09:03:37.095Z,8.30
2018-03-08T09:06:07.301Z,8.23
2018-03-08T09:08:37.566Z,8.80
2018-03-08T09:11:05.761Z,8.87
2018-03-08T09:13:35.093Z,8.57
2018-03-08T09:16:03.474Z,8.70
2018-03-08T09:18:31.752Z,8.20
2018-03-08T09:21:00.016Z,8.50
2018-03-08T09:23:29.126Z,9.10
2018-03-08T09:25:57.472Z,9.07
2018-03-08T09:28:26.069Z,8.37
2018-03-08T09:30:54.260Z,9.27
2018-03-08T09:33:23.250Z,8.70
2018-03-08T09:35:51.511Z,8.27
2018-03-08T09:38:19.798Z,8.47
2018-03-08T09:40:48.788Z,8.30
2018-03-08T09:43:17.043Z,7.90
2018-03-08T09:45:45.323Z,9.40
2018-03-08T09:48:14.373Z,9.57
2018-03-08T09:50:43.495Z,8.97
2018-03-08T09:53:12.610Z,8.27
2018-03-08T09:55:40.961Z,8.50
2018-03-08T09:58:09.208Z,8.40
2018-03-08T10:00:37.572Z,8.60
2018-03-08T10:03:07.817Z,7.67
2018-03-08T10:05:36.003Z,8.37
2018-03-08T10:08:04.281Z,9.07
2018-03-08T10:10:32.609Z,8.67
2018-03-08T10:13:00.868Z,8.67
2018-03-08T10:15:29.152Z,8.23
2018-03-08T10:17:58.263Z,8.63
2018-03-08T10:20:26.472Z,7.10
2018-03-08T10:22:54.737Z,7.40
2018-03-08T10:25:23.100Z,7.83
2018-03-08T10:27:52.141Z,9.03
2018-03-08T10:30:20.663Z,7.17
2018-03-08T10:32:48.898Z,7.57
2018-03-08T10:35:17.227Z,7.57
2018-03-08T10:37:45.432Z,7.40
2018-03-08T10:40:13.757Z,7.83
2018-03-08T10:45:11.579Z,7.80
2018-03-08T10:47:39.999Z,8.77
2018-03-08T10:50:09.073Z,8.83
2018-03-08T10:52:40.865Z,8.67
2018-03-08T10:55:12.365Z,8.30
2018-03-08T10:57:43.130Z,8.77
2018-03-08T11:00:15.269Z,8.73
2018-03-08T11:02:51.184Z,8.47
2018-03-08T11:05:23.961Z,8.90
2018-03-08T11:07:55.438Z,8.13
2018-03-08T11:10:26.381Z,9.00
2018-03-08T11:12:57.437Z,8.23
2018-03-08T11:15:28.218Z,8.50
2018-03-08T11:18:00.100Z,8.20
2018-03-08T11:20:30.723Z,9.07
2018-03-08T11:23:02.226Z,8.20
2018-03-08T11:25:32.886Z,8.57
2018-03-08T11:28:04.355Z,8.30
2018-03-08T11:30:36.410Z,7.90
2018-03-08T11:33:07.415Z,8.10
2018-03-08T11:35:38.118Z,8.63
2018-03-08T11:38:09.457Z,9.17
2018-03-08T11:40:41.127Z,8.27
2018-03-08T11:43:12.477Z,8.63
2018-03-08T11:45:44.596Z,8.80
2018-03-08T11:48:15.988Z,9.00
2018-03-08T11:50:46.593Z,8.80
2018-03-08T11:53:18.580Z,8.77
2018-03-08T11:55:49.366Z,9.80
2018-03-08T11:58:20.751Z,7.07
2018-03-08T12:00:52.113Z,7.97
2018-03-08T12:03:23.089Z,9.47
2018-03-08T12:05:53.762Z,10.37
2018-03-08T12:08:24.514Z,10.70
2018-03-08T12:10:55.375Z,11.07
2018-03-08T12:13:25.977Z,14.03
2018-03-08T12:15:57.016Z,16.73
2018-03-08T12:18:27.752Z,15.87
2018-03-08T12:20:58.507Z,14.47
2018-03-08T12:23:29.835Z,16.20
2018-03-08T12:26:00.515Z,14.37
2018-03-08T12:28:31.596Z,12.77
2018-03-08T12:31:02.346Z,13.70
2018-03-08T12:33:33.061Z,14.70
2018-03-08T12:36:03.713Z,15.30
2018-03-08T12:38:34.880Z,11.83
2018-03-08T12:41:05.725Z,13.07
2018-03-08T12:43:36.482Z,13.57
2018-03-08T12:46:07.268Z,17.73
2018-03-08T12:48:37.977Z,17.17
2018-03-08T12:51:09.506Z,13.60
2018-03-08T12:53:40.242Z,15.73
2018-03-08T12:56:10.801Z,12.90
2018-03-08T12:58:43.835Z,12.30
2018-03-08T13:01:16.578Z,17.07
2018-03-08T13:03:47.323Z,15.63
2018-03-08T13:06:18.999Z,15.00
2018-03-08T13:08:50.096Z,13.00
2018-03-08T13:11:21.145Z,18.70
2018-03-08T13:13:52.010Z,14.97
2018-03-08T13:16:23.129Z,15.13
2018-03-08T13:18:55.673Z,19.70
2018-03-08T13:21:27.195Z,15.50
2018-03-08T13:23:57.936Z,15.67
2018-03-08T13:26:28.546Z,20.17
2018-03-08T13:29:00.331Z,19.23
2018-03-08T13:31:30.992Z,16.90
2018-03-08T13:34:01.731Z,18.00
2018-03-08T13:36:32.328Z,24.80
2018-03-08T13:39:03.621Z,20.93
2018-03-08T13:41:34.781Z,22.40
2018-03-08T13:44:05.562Z,19.47
2018-03-08T13:46:36.328Z,20.17
2018-03-08T13:49:17.757Z,16.73
2018-03-08T13:51:48.364Z,21.20
2018-03-08T13:54:20.146Z,26.20
2018-03-08T13:56:51.965Z,24.67
2018-03-08T13:59:23.828Z,22.30
2018-03-08T14:01:59.052Z,26.30
2018-03-08T14:04:30.405Z,25.43
2018-03-08T14:07:01.152Z,22.83
2018-03-08T14:09:31.897Z,21.10
2018-03-08T14:12:02.534Z,20.90
2018-03-08T14:14:34.063Z,23.60
2018-03-08T14:17:04.850Z,16.90
2018-03-08T14:19:35.535Z,21.90
2018-03-08T14:22:07.015Z,15.30
2018-03-08T14:24:37.720Z,24.00
2018-03-08T14:27:09.213Z,20.47
2018-03-08T14:29:40.312Z,15.43
2018-03-08T14:32:10.954Z,18.50
2018-03-08T14:34:41.844Z,26.07
2018-03-08T14:37:14.341Z,23.10
2018-03-08T14:39:45.058Z,31.60
2018-03-08T14:42:15.853Z,16.63
2018-03-08T14:44:46.607Z,14.83
2018-03-08T14:47:17.751Z,17.13
2018-03-08T14:49:48.738Z,15.73
2018-03-08T14:52:20.859Z,18.83
2018-03-08T14:54:52.159Z,18.70
2018-03-08T14:57:23.573Z,27.87
2018-03-08T14:59:56.553Z,16.63
2018-03-08T15:02:27.244Z,15.33
2018-03-08T15:04:58.728Z,17.47
2018-03-08T15:07:30.606Z,25.07
2018-03-08T15:10:01.224Z,20.30
2018-03-08T15:12:33.994Z,19.17
2018-03-08T15:15:04.793Z,16.63
2018-03-08T15:17:36.198Z,16.73
2018-03-08T15:20:06.910Z,22.37
2018-03-08T15:22:38.062Z,29.57
2018-03-08T15:25:10.008Z,24.27
2018-03-08T15:27:41.468Z,22.60
2018-03-08T15:30:12.808Z,24.60
2018-03-08T15:32:43.382Z,26.33
2018-03-08T15:35:14.087Z,19.77
2018-03-08T15:37:46.854Z,28.57
2018-03-08T15:40:17.540Z,21.03
2018-03-08T15:42:49.121Z,15.90
2018-03-08T15:45:20.322Z,17.70
2018-03-08T15:47:52.323Z,23.80
2018-03-08T15:50:23.373Z,26.00
2018-03-08T15:52:54.381Z,21.57
2018-03-08T15:55:25.411Z,30.00
2018-03-08T15:57:56.397Z,21.27
2018-03-08T16:00:27.498Z,20.17
2018-03-08T16:02:58.488Z,20.60
2018-03-08T16:05:29.562Z,24.73
2018-03-08T16:11:02.374Z,24.90
2018-03-08T16:13:34.943Z,28.50
2018-03-08T16:16:05.926Z,26.40
2018-03-08T16:18:36.953Z,24.03
2018-03-08T16:21:08.677Z,27.57
2018-03-08T16:23:40.762Z,18.33
2018-03-08T16:26:11.849Z,22.20
2018-03-08T16:28:43.757Z,18.60
2018-03-08T16:31:15.076Z,26.40
2018-03-08T16:33:46.805Z,27.87
2018-03-08T16:36:17.821Z,31.70
2018-03-08T16:38:48.850Z,27.10
2018-03-08T16:41:19.908Z,30.17
2018-03-08T16:43:51.624Z,31.40
2018-03-08T16:46:22.668Z,29.27
2018-03-08T16:48:53.682Z,29.87
2018-03-08T16:51:25.492Z,30.73
2018-03-08T16:53:57.204Z,29.67
2018-03-08T16:56:28.454Z,27.83
2018-03-08T16:58:59.448Z,28.80
2018-03-08T17:01:30.443Z,28.70
2018-03-08T17:04:02.602Z,27.10
2018-03-08T17:06:33.699Z,28.23
2018-03-08T17:09:05.713Z,24.63
2018-03-08T17:11:38.242Z,24.43
2018-03-08T17:14:10.377Z,21.37
2018-03-08T17:16:42.008Z,21.20
2018-03-08T17:19:13.855Z,19.80
2018-03-08T17:21:44.838Z,18.10
2018-03-08T17:24:16.556Z,19.40
2018-03-08T17:26:47.607Z,17.87
2018-03-08T17:29:19.782Z,18.53
2018-03-08T17:31:51.947Z,18.20
2018-03-08T17:34:23.101Z,17.90
2018-03-08T17:36:54.042Z,16.27
2018-03-08T17:39:25.226Z,17.83
2018-03-08T17:41:56.620Z,18.40
2018-03-08T17:44:27.634Z,15.50
2018-03-08T17:46:59.102Z,18.60
2018-03-08T17:49:30.123Z,14.80
2018-03-08T17:52:01.489Z,12.93
2018-03-08T17:54:32.766Z,14.27
2018-03-08T17:57:03.896Z,16.90
2018-03-08T17:59:34.939Z,17.17
2018-03-08T18:02:05.970Z,18.43
2018-03-08T18:04:38.323Z,15.40
2018-03-08T18:07:09.936Z,15.87
2018-03-08T18:09:40.994Z,15.07
2018-03-08T18:12:12.384Z,13.90
2018-03-08T18:14:44.301Z,15.20
2018-03-08T18:17:15.331Z,14.43
2018-03-08T18:19:46.319Z,12.80
2018-03-08T18:22:17.306Z,13.33
2018-03-08T18:24:49.301Z,13.40
2018-03-08T18:27:20.873Z,12.83
2018-03-08T18:29:52.046Z,12.80
2018-03-08T18:32:24.672Z,12.10
2018-03-08T18:34:55.641Z,12.63
2018-03-08T18:37:28.149Z,11.43
2018-03-08T18:39:59.590Z,12.17
2018-03-08T18:42:31.137Z,13.03
2018-03-08T18:45:02.136Z,12.87
2018-03-08T18:47:34.232Z,12.20
2018-03-08T18:50:05.253Z,13.07
2018-03-08T18:52:36.820Z,12.50
2018-03-08T18:55:07.883Z,13.03
2018-03-08T18:57:39.021Z,12.27
2018-03-08T19:00:10.315Z,11.73
2018-03-08T19:02:41.928Z,12.73
2018-03-08T19:05:13.456Z,13.60
2018-03-08T19:07:45.789Z,12.90
2018-03-08T19:10:17.104Z,13.00
2018-03-08T19:12:49.004Z,12.83
2018-03-08T19:15:22.415Z,13.20
2018-03-08T19:17:53.716Z,14.67
2018-03-08T19:20:24.763Z,15.13
2018-03-08T19:22:55.972Z,14.13
2018-03-08T19:25:27.048Z,15.70
2018-03-08T19:27:58.207Z,14.97
2018-03-08T19:30:28.982Z,13.93
2018-03-08T19:33:01.741Z,13.40
2018-03-08T19:35:32.802Z,15.67
2018-03-08T19:38:04.381Z,14.90
2018-03-08T19:40:37.491Z,14.20
2018-03-08T19:43:09.653Z,14.90
2018-03-08T19:45:40.699Z,15.10
2018-03-08T19:48:11.837Z,15.23
2018-03-08T19:50:42.991Z,14.93
2018-03-08T19:53:14.572Z,13.17
2018-03-08T19:55:45.673Z,15.80
2018-03-08T19:58:17.891Z,14.83
2018-03-08T20:00:48.990Z,14.07
2018-03-08T20:03:20.174Z,13.27
2018-03-08T20:05:52.289Z,12.97
2018-03-08T20:08:23.448Z,14.33
2018-03-08T20:10:54.545Z,12.23
2018-03-08T20:13:26.733Z,13.30
2018-03-08T20:15:58.743Z,13.53
2018-03-08T20:18:29.917Z,12.97
2018-03-08T20:21:01.014Z,13.27
2018-03-08T20:23:32.276Z,14.07
2018-03-08T20:26:03.849Z,15.50
2018-03-08T20:28:35.003Z,14.30
2018-03-08T20:31:06.097Z,12.50
2018-03-08T20:33:38.101Z,14.60
2018-03-08T20:36:09.076Z,13.40
2018-03-08T20:38:40.210Z,13.60
2018-03-08T20:41:11.317Z,13.20
2018-03-08T20:43:42.471Z,14.17
2018-03-08T20:46:13.599Z,14.90
2018-03-08T20:48:44.729Z,14.43
2018-03-08T20:51:15.850Z,14.00
2018-03-08T20:53:47.877Z,15.30
2018-03-08T20:56:18.871Z,11.87
2018-03-08T20:58:50.825Z,12.23
2018-03-08T21:01:21.943Z,14.37
2018-03-08T21:03:53.949Z,12.80
2018-03-08T21:06:26.265Z,14.60
2018-03-08T21:08:58.216Z,13.43
2018-03-08T21:11:29.643Z,14.47
2018-03-08T21:14:00.723Z,14.00
2018-03-08T21:16:31.735Z,14.23
2018-03-08T21:19:04.192Z,13.83
2018-03-08T21:21:36.056Z,15.50
2018-03-08T21:24:07.874Z,14.30
2018-03-08T21:26:39.027Z,13.90
2018-03-08T21:29:12.127Z,12.90
2018-03-08T21:31:44.331Z,14.23
2018-03-08T21:34:16.514Z,15.40
2018-03-08T21:36:48.310Z,15.40
2018-03-08T21:39:19.552Z,17.20
2018-03-08T21:41:50.638Z,17.47
2018-03-08T21:44:23.065Z,15.27
2018-03-08T21:46:55.053Z,17.40
2018-03-08T21:49:26.243Z,16.17
2018-03-08T21:51:58.787Z,16.40
2018-03-08T21:54:29.884Z,16.00
2018-03-08T21:57:02.759Z,15.50
2018-03-08T21:59:34.447Z,16.40
2018-03-08T22:02:07.733Z,18.57
2018-03-08T22:04:39.681Z,16.07
2018-03-08T22:07:10.812Z,20.30
2018-03-08T22:09:42.000Z,20.77
2018-03-08T22:12:14.925Z,16.93
2018-03-08T22:14:47.645Z,17.70
2018-03-08T22:17:18.824Z,16.67
2018-03-08T22:19:50.152Z,17.03
2018-03-08T22:22:21.357Z,17.20
2018-03-08T22:24:52.594Z,14.83
2018-03-08T22:27:25.024Z,17.80
2018-03-08T22:29:56.318Z,16.50
2018-03-08T22:32:30.779Z,17.40
2018-03-08T22:35:06.932Z,15.00
2018-03-08T22:37:38.246Z,15.93
2018-03-08T22:40:09.713Z,18.67
2018-03-08T22:42:41.623Z,19.27
2018-03-08T22:45:13.169Z,16.70
2018-03-08T22:47:44.378Z,16.37
2018-03-08T22:50:16.418Z,17.60
2018-03-08T22:52:48.283Z,16.20
2018-03-08T22:55:21.114Z,16.03
2018-03-08T22:57:53.824Z,18.07
2018-03-08T23:00:25.636Z,17.00
2018-03-08T23:03:01.992Z,16.57
2018-03-08T23:05:33.469Z,19.10
2018-03-08T23:08:04.801Z,17.60
2018-03-08T23:12:29.423Z,17.30
2018-03-08T23:15:01.644Z,19.43
2018-03-08T23:17:32.994Z,18.70
2018-03-08T23:20:06.482Z,19.80
2018-03-08T23:22:38.943Z,19.77
2018-03-08T23:25:11.089Z,19.33
2018-03-08T23:27:43.164Z,18.80
2018-03-08T23:30:14.529Z,20.47
2018-03-08T23:32:46.332Z,20.97
2018-03-08T23:35:17.925Z,19.60
2018-03-08T23:37:50.005Z,19.43
2018-03-08T23:40:21.284Z,14.07
2018-03-08T23:42:52.508Z,12.17
2018-03-08T23:45:23.616Z,10.30
2018-03-08T23:47:55.144Z,11.97
2018-03-08T23:50:26.990Z,10.87
2018-03-08T23:53:00.355Z,10.37
2018-03-08T23:55:31.504Z,9.40
2018-03-08T23:58:02.803Z,11.53
